Terminal Aerodrome Forecast
Issued by NWS Sterling, VA

Current Version | Previous Version | Text Only | Print | Product List | Glossary Off
Versions: 1 2 3 4 5 6 7 8 9 10 11 12 13

000
FTUS41 KLWX 261725
TAFMRB
TAF
KMRB 261725Z 2618/2718 31007KT P6SM SCT080
     FM270300 VRB03KT P6SM SCT080
     FM271500 26007KT P6SM BKN200=

USA.gov is the U.S. government's official web portal to all federal, state and local government web resources and services.